Time;durP1;ratioP1;P1;durP2;ratioP2;P2;SDS_P1;SDS_P2;PMS_P1;PMS_P2;Temp;Humidity;BMP_temperature;BMP_pressure;BME280_temperature;BME280_humidity;BME280_pressure;Samples;Min_cycle;Max_cycle;Signal;HPM_P1;HPM_P2
2021/07/08 00:00:56;;;;;;;7.77;7.27;;;16.20;99.90;;;;;;5013906;28;20188;-66
2021/07/08 00:03:22;;;;;;;7.33;6.87;;;16.10;99.90;;;;;;5013790;28;20258;-66
2021/07/08 00:05:47;;;;;;;7.30;6.90;;;16.10;99.90;;;;;;5013635;28;20749;-66
2021/07/08 00:08:13;;;;;;;7.83;7.13;;;16.10;99.90;;;;;;5013631;28;20263;-66
2021/07/08 00:10:52;;;;;;;6.83;6.33;;;16.10;99.90;;;;;;5013812;28;20222;-66
2021/07/08 00:13:20;;;;;;;7.60;7.10;;;16.00;99.90;;;;;;5013623;28;20196;-66
2021/07/08 00:15:46;;;;;;;7.70;7.20;;;15.90;99.90;;;;;;5013595;28;20180;-66
2021/07/08 00:18:13;;;;;;;7.60;6.40;;;15.80;99.90;;;;;;5013439;28;20315;-66
2021/07/08 00:20:40;;;;;;;7.23;6.73;;;15.80;99.90;;;;;;5013656;28;20172;-66
2021/07/08 00:23:06;;;;;;;7.47;6.90;;;15.80;99.90;;;;;;5013490;28;20903;-66
2021/07/08 00:25:33;;;;;;;7.50;7.00;;;15.90;99.90;;;;;;5013507;28;20207;-66
2021/07/08 00:28:00;;;;;;;8.47;6.80;;;15.80;99.90;;;;;;5013042;28;20268;-66
2021/07/08 00:30:26;;;;;;;7.73;7.23;;;15.70;99.90;;;;;;5013616;28;20250;-66
2021/07/08 00:32:53;;;;;;;7.30;6.77;;;15.70;99.90;;;;;;5013084;28;20196;-66
2021/07/08 00:35:18;;;;;;;7.03;6.53;;;15.70;99.90;;;;;;5013517;28;20168;-66
2021/07/08 00:37:44;;;;;;;7.67;6.73;;;15.60;99.90;;;;;;5012947;28;20176;-67
2021/07/08 00:40:12;;;;;;;7.03;6.63;;;15.60;99.90;;;;;;5013177;28;20180;-66
2021/07/08 00:42:39;;;;;;;7.50;7.00;;;15.50;99.90;;;;;;5012844;28;20204;-66
2021/07/08 00:45:10;;;;;;;7.60;7.10;;;15.50;99.90;;;;;;5013200;28;20184;-66
2021/07/08 00:47:36;;;;;;;7.10;6.70;;;15.50;99.90;;;;;;5012094;28;20222;-66
2021/07/08 00:50:06;;;;;;;7.57;6.83;;;15.40;99.90;;;;;;5013019;28;20567;-66
2021/07/08 00:52:33;;;;;;;7.63;7.13;;;15.40;99.90;;;;;;5011697;28;20192;-66
2021/07/08 00:54:59;;;;;;;7.00;6.60;;;15.30;99.90;;;;;;5012975;28;20179;-66
2021/07/08 00:57:24;;;;;;;8.17;7.57;;;15.40;99.90;;;;;;5012565;28;20172;-66
2021/07/08 00:59:54;;;;;;;7.20;6.70;;;15.50;99.90;;;;;;5012914;28;20176;-67
2021/07/08 01:02:20;;;;;;;8.70;8.07;;;15.50;99.90;;;;;;5012627;28;20203;-66
2021/07/08 01:04:48;;;;;;;7.00;6.60;;;15.50;99.90;;;;;;5012755;28;20258;-66
2021/07/08 01:07:15;;;;;;;8.07;7.30;;;15.40;99.90;;;;;;5012362;28;20180;-66
2021/07/08 01:09:41;;;;;;;7.80;7.30;;;15.40;99.90;;;;;;5012594;28;20176;-66
2021/07/08 01:12:08;;;;;;;9.47;7.27;;;15.40;99.90;;;;;;5012466;28;20286;-66
2021/07/08 01:14:34;;;;;;;8.20;7.50;;;15.40;99.90;;;;;;5012421;28;20191;-66
2021/07/08 01:17:00;;;;;;;8.10;7.50;;;15.30;99.90;;;;;;5012309;28;20188;-66
2021/07/08 01:19:27;;;;;;;8.53;7.70;;;15.30;99.90;;;;;;5012572;28;20180;-66
2021/07/08 01:21:53;;;;;;;9.13;7.70;;;15.30;99.90;;;;;;5012179;28;20200;-66
2021/07/08 01:24:19;;;;;;;7.80;7.23;;;15.30;99.90;;;;;;5012521;28;20287;-66
2021/07/08 01:26:45;;;;;;;7.67;7.07;;;15.30;99.90;;;;;;5012102;28;20669;-66
2021/07/08 01:29:11;;;;;;;8.97;8.17;;;15.20;99.90;;;;;;5012389;28;20234;-66
2021/07/08 01:31:37;;;;;;;8.50;7.80;;;15.20;99.90;;;;;;5012088;28;20172;-66
2021/07/08 01:34:03;;;;;;;8.40;7.67;;;15.10;99.90;;;;;;5011679;28;20213;-66
2021/07/08 01:36:29;;;;;;;8.63;8.03;;;15.10;99.90;;;;;;5011995;28;20199;-66
2021/07/08 01:38:54;;;;;;;8.57;7.77;;;15.20;99.90;;;;;;5012130;28;20172;-66
2021/07/08 01:41:20;;;;;;;8.60;7.90;;;15.10;99.90;;;;;;5012019;28;20731;-66
2021/07/08 01:43:46;;;;;;;8.23;7.73;;;15.10;99.90;;;;;;5012138;28;20282;-66
2021/07/08 01:46:15;;;;;;;8.73;8.03;;;15.00;99.90;;;;;;5011700;28;20686;-67
2021/07/08 01:48:42;;;;;;;8.43;7.83;;;15.00;99.90;;;;;;5012102;28;20195;-66
2021/07/08 01:51:23;;;;;;;8.50;7.87;;;15.00;99.90;;;;;;5011942;28;20186;-66
2021/07/08 01:53:49;;;;;;;8.97;7.97;;;15.00;99.90;;;;;;5010887;28;20626;-66
2021/07/08 01:56:14;;;;;;;8.30;7.70;;;15.00;99.90;;;;;;5011672;28;20877;-66
2021/07/08 01:58:40;;;;;;;8.63;8.03;;;15.00;99.90;;;;;;5011931;28;20208;-66
2021/07/08 02:01:06;;;;;;;8.90;8.23;;;15.10;99.90;;;;;;5011706;28;20545;-67
2021/07/08 02:03:32;;;;;;;8.93;8.23;;;15.20;99.90;;;;;;5012076;28;20203;-66
2021/07/08 02:05:57;;;;;;;8.80;7.90;;;15.20;99.90;;;;;;5011498;28;20270;-66
2021/07/08 02:08:23;;;;;;;8.40;7.90;;;15.30;99.90;;;;;;5012972;28;20172;-69
2021/07/08 02:10:49;;;;;;;10.40;8.13;;;15.20;99.90;;;;;;5013109;28;20161;-68
2021/07/08 02:13:14;;;;;;;8.70;7.90;;;15.20;99.90;;;;;;5013282;28;20204;-71
2021/07/08 02:15:40;;;;;;;8.27;7.67;;;15.20;99.90;;;;;;5013591;28;20180;-66
2021/07/08 02:18:06;;;;;;;8.80;8.00;;;15.20;99.90;;;;;;5012945;28;20184;-68
2021/07/08 02:20:32;;;;;;;8.47;7.70;;;15.20;99.90;;;;;;5013397;28;20183;-70
2021/07/08 02:22:58;;;;;;;8.20;7.50;;;15.20;99.90;;;;;;5013059;28;20195;-67
2021/07/08 02:25:24;;;;;;;9.30;8.40;;;15.20;99.90;;;;;;5013308;28;20345;-68
2021/07/08 02:27:50;;;;;;;12.90;8.47;;;15.20;99.90;;;;;;5012997;28;20657;-72
2021/07/08 02:30:21;;;;;;;8.50;7.87;;;15.20;99.90;;;;;;5013318;28;20183;-71
2021/07/08 02:32:50;;;;;;;9.17;8.43;;;15.10;99.90;;;;;;5011433;28;20200;-70
2021/07/08 02:35:16;;;;;;;8.50;7.80;;;15.10;99.90;;;;;;5012776;28;20655;-70
2021/07/08 02:37:43;;;;;;;10.07;8.40;;;15.00;99.90;;;;;;5012143;28;20182;-70
2021/07/08 02:40:11;;;;;;;7.80;7.20;;;15.10;99.90;;;;;;5012878;28;20555;-69
2021/07/08 02:42:38;;;;;;;9.87;8.60;;;15.10;99.90;;;;;;5012237;28;20316;-69
2021/07/08 02:45:08;;;;;;;8.70;8.00;;;15.10;99.90;;;;;;5013166;28;20206;-71
2021/07/08 02:47:34;;;;;;;8.47;7.57;;;15.00;99.90;;;;;;5012850;28;20247;-70
2021/07/08 02:50:01;;;;;;;8.13;7.53;;;15.00;99.90;;;;;;5013193;28;20172;-71
2021/07/08 02:52:27;;;;;;;9.13;7.83;;;15.00;99.90;;;;;;5012959;28;20204;-69
2021/07/08 02:54:52;;;;;;;7.90;7.37;;;15.00;99.90;;;;;;5013025;28;20679;-70
2021/07/08 02:57:18;;;;;;;8.87;8.07;;;15.00;99.90;;;;;;5012868;28;20226;-68
2021/07/08 02:59:43;;;;;;;8.23;7.60;;;14.90;99.90;;;;;;5012824;28;20191;-69
2021/07/08 03:02:09;;;;;;;8.00;7.40;;;14.80;99.90;;;;;;5012945;28;20196;-67
2021/07/08 03:04:36;;;;;;;8.77;7.80;;;14.90;99.90;;;;;;5013028;28;20254;-69
2021/07/08 03:07:02;;;;;;;8.93;8.07;;;14.90;99.90;;;;;;5012962;28;20172;-68
2021/07/08 03:09:27;;;;;;;8.63;7.77;;;14.90;99.90;;;;;;5012815;28;20630;-69
2021/07/08 03:11:53;;;;;;;8.40;7.80;;;14.90;99.90;;;;;;5014620;28;20192;-67
2021/07/08 03:14:19;;;;;;;9.47;8.53;;;15.00;99.90;;;;;;5016331;28;20179;-69
2021/07/08 03:16:44;;;;;;;8.13;7.40;;;15.00;99.90;;;;;;5016232;28;20172;-72
2021/07/08 03:19:10;;;;;;;8.93;8.13;;;15.10;99.90;;;;;;5016595;28;20172;-70
2021/07/08 03:21:37;;;;;;;8.40;7.60;;;15.20;99.90;;;;;;5016290;28;20195;-70
2021/07/08 03:24:04;;;;;;;8.83;7.77;;;15.30;99.90;;;;;;5016592;28;20211;-69
2021/07/08 03:26:29;;;;;;;8.03;7.37;;;15.30;99.90;;;;;;5015962;28;20183;-67
2021/07/08 03:28:55;;;;;;;8.50;7.80;;;15.40;99.90;;;;;;5016439;28;20168;-68
2021/07/08 03:31:22;;;;;;;8.67;7.87;;;15.50;99.90;;;;;;5016178;28;20172;-70
2021/07/08 03:33:48;;;;;;;8.30;7.50;;;15.50;99.90;;;;;;5016670;28;20172;-70
2021/07/08 03:36:13;;;;;;;11.07;7.53;;;15.60;99.90;;;;;;5014909;28;20724;-70
2021/07/08 03:38:39;;;;;;;8.93;8.20;;;15.60;99.90;;;;;;5016131;28;20177;-70
2021/07/08 03:41:04;;;;;;;8.13;7.53;;;15.50;99.90;;;;;;5016080;28;20199;-69
2021/07/08 03:43:30;;;;;;;8.13;7.43;;;15.50;99.90;;;;;;5016479;28;20246;-70
2021/07/08 03:45:56;;;;;;;8.57;7.67;;;15.50;99.90;;;;;;5015526;28;20207;-71
2021/07/08 03:48:21;;;;;;;8.10;7.40;;;15.60;99.90;;;;;;5016460;28;20168;-67
2021/07/08 03:50:47;;;;;;;8.17;7.47;;;15.60;99.90;;;;;;5013884;28;20175;-66
2021/07/08 03:53:12;;;;;;;7.57;6.97;;;15.60;99.90;;;;;;5013261;28;20657;-66
2021/07/08 03:55:38;;;;;;;7.80;7.20;;;15.60;99.90;;;;;;5013673;28;20306;-66
2021/07/08 03:58:04;;;;;;;8.27;7.57;;;15.60;99.90;;;;;;5014102;28;20183;-66
2021/07/08 04:00:34;;;;;;;9.50;8.57;;;15.70;99.90;;;;;;5013879;28;20251;-66
2021/07/08 04:03:09;;;;;;;8.20;7.60;;;15.70;99.90;;;;;;5013947;28;20251;-67
2021/07/08 04:05:35;;;;;;;8.13;7.20;;;15.80;99.90;;;;;;5013704;28;20204;-66
2021/07/08 04:08:02;;;;;;;8.37;7.67;;;15.80;99.90;;;;;;5013729;28;20169;-66
2021/07/08 04:10:28;;;;;;;9.20;8.50;;;15.70;99.90;;;;;;5013733;28;20226;-66
2021/07/08 04:12:53;;;;;;;8.30;7.47;;;15.60;99.90;;;;;;5013743;28;20185;-66
2021/07/08 04:15:19;;;;;;;7.90;7.17;;;15.60;99.90;;;;;;5013719;28;20180;-66
2021/07/08 04:17:45;;;;;;;7.50;7.00;;;15.50;99.90;;;;;;5013485;28;20179;-67
2021/07/08 04:20:13;;;;;;;7.77;7.17;;;15.50;99.90;;;;;;5013790;28;20176;-67
2021/07/08 04:22:40;;;;;;;7.83;7.23;;;15.50;99.90;;;;;;5012489;28;20628;-66
2021/07/08 04:25:07;;;;;;;8.00;7.30;;;15.60;99.90;;;;;;5013544;28;20203;-66
2021/07/08 04:27:33;;;;;;;9.17;8.00;;;15.70;99.90;;;;;;5013172;28;20214;-67
2021/07/08 04:29:59;;;;;;;7.90;7.20;;;15.70;99.90;;;;;;5013696;28;20179;-66
2021/07/08 04:32:25;;;;;;;8.60;8.00;;;15.80;99.90;;;;;;5013193;28;20678;-66
2021/07/08 04:34:50;;;;;;;9.83;7.57;;;16.10;99.90;;;;;;5013288;28;20604;-66
2021/07/08 04:37:16;;;;;;;11.90;8.37;;;16.20;99.90;;;;;;5012964;28;20187;-67
2021/07/08 04:39:42;;;;;;;7.80;7.23;;;16.40;99.90;;;;;;5013415;28;20669;-67
2021/07/08 04:42:10;;;;;;;8.40;7.60;;;16.50;99.90;;;;;;5020973;22;20299;-67
2021/07/08 04:44:36;;;;;;;8.23;7.53;;;16.60;99.90;;;;;;5004298;28;20300;-67
2021/07/08 04:47:02;;;;;;;8.47;7.77;;;16.70;99.90;;;;;;4993245;28;20280;-67
2021/07/08 04:49:28;;;;;;;9.00;8.13;;;16.80;99.90;;;;;;4999485;28;20181;-67
2021/07/08 04:51:53;;;;;;;9.20;8.37;;;16.90;99.90;;;;;;5012094;28;20254;-67
2021/07/08 04:54:19;;;;;;;8.23;7.53;;;16.80;99.90;;;;;;5007626;28;20169;-67
2021/07/08 04:56:44;;;;;;;8.80;8.03;;;16.90;99.90;;;;;;4992907;28;20173;-67
2021/07/08 04:59:10;;;;;;;11.37;10.47;;;17.00;99.90;;;;;;5004171;28;20183;-67
2021/07/08 05:01:36;;;;;;;9.50;8.53;;;17.00;99.90;;;;;;5012901;28;20179;-67
2021/07/08 05:04:01;;;;;;;7.27;6.77;;;17.10;99.90;;;;;;5002834;28;20287;-67
2021/07/08 05:06:27;;;;;;;8.57;7.97;;;17.20;99.90;;;;;;4992828;28;20248;-67
2021/07/08 05:08:53;;;;;;;7.93;7.43;;;17.40;99.90;;;;;;5000525;28;20173;-67
2021/07/08 05:11:19;;;;;;;8.07;7.37;;;17.50;99.90;;;;;;5012842;28;20172;-67
2021/07/08 05:13:44;;;;;;;10.07;7.50;;;17.60;99.90;;;;;;5006608;28;20662;-67
2021/07/08 05:16:10;;;;;;;7.57;7.07;;;17.60;99.90;;;;;;4992889;28;20181;-67
2021/07/08 05:18:36;;;;;;;8.53;7.83;;;17.70;99.90;;;;;;4996721;28;20207;-67
2021/07/08 05:21:02;;;;;;;7.00;6.50;;;17.80;99.90;;;;;;5012602;28;20176;-67
2021/07/08 05:23:30;;;;;;;8.17;7.57;;;17.90;99.90;;;;;;5010339;28;20195;-67
2021/07/08 05:25:55;;;;;;;8.43;6.63;;;18.00;99.90;;;;;;4992653;28;20200;-67
2021/07/08 05:28:21;;;;;;;7.80;7.20;;;18.10;99.90;;;;;;4993272;28;20246;-67
2021/07/08 05:30:47;;;;;;;8.00;7.37;;;18.20;99.90;;;;;;4993459;28;20261;-67
2021/07/08 05:33:12;;;;;;;8.93;8.13;;;18.10;99.90;;;;;;4992614;28;20197;-67
2021/07/08 05:35:38;;;;;;;10.93;7.60;;;18.20;99.90;;;;;;5010604;28;20176;-66
2021/07/08 05:38:06;;;;;;;7.90;7.07;;;18.10;99.90;;;;;;5012273;28;20262;-67
2021/07/08 05:40:31;;;;;;;9.73;7.70;;;18.10;99.90;;;;;;4995158;28;20239;-66
2021/07/08 05:42:57;;;;;;;8.80;7.90;;;18.10;99.90;;;;;;4992460;28;20244;-66
2021/07/08 05:45:23;;;;;;;7.80;7.20;;;18.20;99.90;;;;;;4992090;28;20212;-66
2021/07/08 05:47:49;;;;;;;8.27;7.30;;;18.30;99.90;;;;;;4992314;28;20189;-66
2021/07/08 05:50:15;;;;;;;7.10;6.40;;;18.40;99.90;;;;;;5005547;28;20266;-66
2021/07/08 05:52:41;;;;;;;8.17;7.50;;;18.50;99.90;;;;;;5011220;28;20199;-66
2021/07/08 05:55:07;;;;;;;8.20;7.50;;;18.60;99.90;;;;;;5000215;28;20188;-66
2021/07/08 05:57:32;;;;;;;7.57;7.07;;;18.70;99.90;;;;;;4990661;28;20180;-66
2021/07/08 05:59:58;;;;;;;8.20;7.50;;;18.90;99.90;;;;;;5000749;28;20592;-66
2021/07/08 06:02:24;;;;;;;8.13;7.43;;;19.10;99.90;;;;;;4994815;28;20205;-66
2021/07/08 06:04:49;;;;;;;9.43;8.77;;;19.40;99.90;;;;;;4999822;28;20610;-66
2021/07/08 06:07:15;;;;;;;10.27;9.37;;;19.60;99.90;;;;;;5011550;28;20175;-66
2021/07/08 06:09:40;;;;;;;9.53;7.77;;;19.70;99.90;;;;;;5005746;28;20551;-67
2021/07/08 06:12:06;;;;;;;9.77;8.80;;;19.80;99.90;;;;;;4992080;28;20204;-66
2021/07/08 06:14:32;;;;;;;9.80;8.03;;;20.00;99.90;;;;;;4996245;28;20212;-66
2021/07/08 06:16:58;;;;;;;8.70;8.00;;;20.10;99.90;;;;;;5011439;28;20203;-66
2021/07/08 06:19:24;;;;;;;9.07;8.27;;;20.30;99.90;;;;;;5009232;28;20216;-66
2021/07/08 06:21:50;;;;;;;7.47;6.93;;;20.60;99.90;;;;;;4992180;28;20761;-66
2021/07/08 06:24:16;;;;;;;8.45;7.82;;;20.70;99.90;;;;;;4992447;28;20177;-67
2021/07/08 06:26:42;;;;;;;8.35;7.80;;;21.00;99.90;;;;;;4998281;28;20247;-66
2021/07/08 06:29:08;;;;;;;10.00;9.18;;;21.00;99.90;;;;;;4991930;28;20611;-66
2021/07/08 06:31:33;;;;;;;8.20;7.50;;;21.10;99.90;;;;;;5010509;28;20208;-67
2021/07/08 06:33:59;;;;;;;8.82;7.20;;;21.20;99.90;;;;;;5009001;28;20196;-66
2021/07/08 06:36:25;;;;;;;8.75;8.15;;;21.20;99.90;;;;;;5007640;28;20514;-66
2021/07/08 06:38:51;;;;;;;9.40;8.75;;;21.20;99.90;;;;;;5011630;28;20184;-66
2021/07/08 06:41:16;;;;;;;7.65;7.15;;;21.20;99.90;;;;;;5009862;28;20668;-67
2021/07/08 06:43:42;;;;;;;6.60;6.10;;;21.20;99.90;;;;;;5011592;28;20212;-67
2021/07/08 06:46:08;;;;;;;7.38;6.88;;;21.20;99.90;;;;;;4998725;28;20212;-66
2021/07/08 06:48:34;;;;;;;7.47;6.88;;;21.30;99.90;;;;;;4995680;28;20165;-67
2021/07/08 06:51:00;;;;;;;6.70;6.30;;;21.30;99.90;;;;;;5005989;28;20633;-66
2021/07/08 06:53:26;;;;;;;6.95;6.40;;;21.40;99.90;;;;;;5015289;28;20199;-66
2021/07/08 06:55:51;;;;;;;6.43;5.90;;;21.50;99.90;;;;;;5005023;28;20638;-67
2021/07/08 06:58:17;;;;;;;6.18;5.72;;;21.70;99.90;;;;;;5000322;28;20184;-67
2021/07/08 07:00:43;;;;;;;5.93;5.47;;;21.90;99.90;;;;;;5015043;28;20179;-66
2021/07/08 07:03:09;;;;;;;7.68;5.93;;;22.10;99.90;;;;;;5011272;28;20228;-66
2021/07/08 07:05:35;;;;;;;6.45;5.65;;;22.30;99.90;;;;;;4995478;28;20201;-66
2021/07/08 07:08:00;;;;;;;6.40;5.97;;;22.40;99.90;;;;;;4994519;28;20184;-67
2021/07/08 07:10:28;;;;;;;7.53;5.80;;;22.50;99.90;;;;;;5014989;28;20176;-66
2021/07/08 07:12:56;;;;;;;6.35;5.72;;;22.50;99.90;;;;;;5012942;28;20242;-67
2021/07/08 07:15:24;;;;;;;7.80;7.07;;;22.40;99.90;;;;;;4995307;28;20184;-66
2021/07/08 07:17:50;;;;;;;16.25;6.60;;;22.30;99.90;;;;;;4994735;28;20169;-66
2021/07/08 07:20:17;;;;;;;9.25;8.65;;;22.30;99.90;;;;;;5013701;28;20183;-66
2021/07/08 07:22:47;;;;;;;6.20;5.70;;;22.40;99.90;;;;;;5014620;28;20196;-66
2021/07/08 07:25:19;;;;;;;6.07;5.63;;;22.40;99.90;;;;;;4996193;28;20301;-66
2021/07/08 07:27:48;;;;;;;6.35;5.95;;;22.50;99.90;;;;;;4994529;28;20165;-66
2021/07/08 07:30:15;;;;;;;6.57;5.95;;;22.60;99.90;;;;;;5011771;28;20179;-67
2021/07/08 07:32:40;;;;;;;5.75;5.25;;;22.80;99.90;;;;;;5014383;28;20279;-67
2021/07/08 07:35:06;;;;;;;6.05;5.50;;;22.90;99.90;;;;;;4998183;28;20741;-67
2021/07/08 07:37:32;;;;;;;6.30;5.80;;;23.20;99.90;;;;;;4994523;28;20184;-67
2021/07/08 07:39:58;;;;;;;6.25;5.70;;;23.40;99.90;;;;;;5008493;28;20180;-67
2021/07/08 07:42:24;;;;;;;5.60;5.20;;;23.60;99.90;;;;;;5014059;28;20227;-67
2021/07/08 07:44:50;;;;;;;5.82;5.43;;;23.80;99.90;;;;;;5001249;28;20246;-67
2021/07/08 07:47:17;;;;;;;5.85;5.45;;;24.00;99.90;;;;;;4994074;28;20211;-65
2021/07/08 07:49:43;;;;;;;5.65;5.25;;;24.40;99.90;;;;;;5005401;28;20199;-65
2021/07/08 07:52:12;;;;;;;5.95;5.55;;;24.70;99.90;;;;;;5013040;28;20219;-65
2021/07/08 07:54:38;;;;;;;5.93;5.50;;;25.20;99.90;;;;;;5003848;28;20549;-65
2021/07/08 07:57:05;;;;;;;5.97;5.47;;;25.80;99.90;;;;;;5009953;28;20180;-65
2021/07/08 07:59:35;;;;;;;5.10;4.70;;;26.50;99.90;;;;;;5005306;28;20185;-65
2021/07/08 08:02:01;;;;;;;5.78;5.30;;;27.10;99.90;;;;;;4991710;28;20188;-65
2021/07/08 08:04:30;;;;;;;5.82;5.35;;;27.60;99.90;;;;;;5000268;28;20234;-65
2021/07/08 08:09:41;;;;;;;6.90;6.38;;;28.70;99.90;;;;;;5002952;28;20186;-66
2021/07/08 08:12:07;;;;;;;5.28;4.97;;;28.50;99.90;;;;;;5013509;28;20200;-65
2021/07/08 08:14:32;;;;;;;5.18;4.70;;;28.00;99.90;;;;;;5006279;28;20177;-65
2021/07/08 08:16:59;;;;;;;5.93;5.45;;;27.30;99.90;;;;;;4993533;28;20177;-65
2021/07/08 08:19:25;;;;;;;5.63;5.13;;;26.90;99.90;;;;;;4999105;28;20173;-65
2021/07/08 08:21:50;;;;;;;5.32;4.90;;;27.00;99.90;;;;;;5013385;28;20179;-65
2021/07/08 08:24:16;;;;;;;4.88;4.53;;;27.20;99.90;;;;;;5009393;28;20213;-65
2021/07/08 08:26:42;;;;;;;5.18;4.82;;;27.70;99.90;;;;;;4993586;28;20169;-65
2021/07/08 08:29:07;;;;;;;4.88;4.57;;;28.10;99.90;;;;;;5001681;28;20676;-65
2021/07/08 08:31:33;;;;;;;6.03;5.63;;;28.40;99.90;;;;;;5013366;28;20173;-65
2021/07/08 08:33:58;;;;;;;5.90;5.35;;;28.50;99.90;;;;;;5004995;28;20219;-65
2021/07/08 08:36:24;;;;;;;4.43;4.03;;;28.70;99.90;;;;;;4993183;28;20669;-65
2021/07/08 08:38:50;;;;;;;5.53;5.05;;;28.90;99.90;;;;;;4998189;28;20187;-65
2021/07/08 08:41:15;;;;;;;4.70;4.30;;;28.80;99.90;;;;;;5012942;28;20179;-65
2021/07/08 08:43:41;;;;;;;5.47;5.10;;;28.90;99.90;;;;;;5009702;28;20291;-65
2021/07/08 08:46:07;;;;;;;8.18;7.57;;;28.80;99.90;;;;;;4993019;28;20296;-65
2021/07/08 08:48:34;;;;;;;6.47;5.95;;;29.10;99.90;;;;;;4993340;28;20219;-65
2021/07/08 08:51:00;;;;;;;4.40;4.10;;;29.40;99.90;;;;;;5012652;28;20533;-65
2021/07/08 08:53:26;;;;;;;5.03;4.72;;;29.40;99.90;;;;;;5011947;28;20254;-65
2021/07/08 08:55:51;;;;;;;4.78;4.47;;;29.00;99.90;;;;;;4992857;28;20227;-65
2021/07/08 08:58:21;;;;;;;4.50;4.20;;;28.80;99.90;;;;;;5003460;28;20187;-65
2021/07/08 09:00:48;;;;;;;5.53;5.13;;;28.30;99.90;;;;;;5012611;28;20180;-65
2021/07/08 09:03:15;;;;;;;4.82;4.53;;;27.50;99.90;;;;;;5002844;28;20208;-65
2021/07/08 09:05:47;;;;;;;5.47;5.10;;;26.70;99.90;;;;;;4992552;28;20287;-65
2021/07/08 09:08:21;;;;;;;8.68;8.05;;;26.30;99.90;;;;;;4999240;28;20207;-65
2021/07/08 09:11:05;;;;;;;5.88;4.63;;;25.90;99.90;;;;;;5012300;28;20168;-65
2021/07/08 09:13:46;;;;;;;5.70;5.18;;;25.60;99.90;;;;;;5001529;28;20541;-65
2021/07/08 09:16:15;;;;;;;4.80;4.53;;;25.40;99.90;;;;;;4992682;28;20848;-65
2021/07/08 09:18:42;;;;;;;5.78;5.07;;;25.20;99.90;;;;;;5003996;28;20645;-65
2021/07/08 09:21:20;;;;;;;5.47;5.18;;;25.10;99.90;;;;;;5012546;28;20207;-65
2021/07/08 09:24:12;;;;;;;9.05;7.88;;;25.10;99.90;;;;;;5000641;28;20332;-65
2021/07/08 09:26:41;;;;;;;6.40;5.90;;;24.90;99.90;;;;;;4992536;28;20180;-65
2021/07/08 09:29:27;;;;;;;6.10;4.82;;;25.10;99.90;;;;;;4993245;28;20522;-65
2021/07/08 09:31:56;;;;;;;5.50;5.07;;;25.20;99.90;;;;;;4992743;28;20521;-65
2021/07/08 09:34:25;;;;;;;4.97;4.57;;;25.40;99.90;;;;;;4993701;28;20173;-65
2021/07/08 09:37:14;;;;;;;5.13;4.82;;;25.30;99.90;;;;;;4992370;28;20164;-65
2021/07/08 09:39:43;;;;;;;5.60;5.10;;;25.50;99.90;;;;;;5003692;28;20239;-65
2021/07/08 09:42:12;;;;;;;5.82;5.25;;;26.00;99.90;;;;;;4992319;28;20227;-65
2021/07/08 09:44:38;;;;;;;5.75;4.60;;;26.50;99.90;;;;;;4996803;28;20241;-65
2021/07/08 09:47:17;;;;;;;6.00;5.40;;;26.90;99.90;;;;;;4992174;28;20252;-65
2021/07/08 09:49:45;;;;;;;5.95;5.65;;;27.20;99.90;;;;;;5008930;28;20184;-65
2021/07/08 09:52:11;;;;;;;6.25;5.68;;;27.40;99.90;;;;;;5011022;28;20196;-65
2021/07/08 09:55:31;;;;;;;6.13;5.43;;;27.30;99.90;;;;;;4996699;28;20188;-66
2021/07/08 09:57:40;;;;;;;4.90;4.60;;;27.20;99.90;;;;;;4988104;28;20571;-65
2021/07/08 10:00:22;;;;;;;4.88;4.50;;;26.60;99.90;;;;;;5010696;28;20195;-65
2021/07/08 10:02:49;;;;;;;5.90;5.40;;;26.30;99.90;;;;;;5011622;28;20279;-65
2021/07/08 10:05:16;;;;;;;5.18;4.78;;;25.60;99.90;;;;;;4992389;28;20204;-65
2021/07/08 10:07:43;;;;;;;5.72;5.32;;;25.40;99.90;;;;;;4990901;28;20547;-65
2021/07/08 10:10:10;;;;;;;6.53;5.50;;;25.20;99.90;;;;;;5009555;28;20179;-65
2021/07/08 10:12:37;;;;;;;8.73;5.45;;;24.80;99.90;;;;;;5004598;28;20413;-65
2021/07/08 10:15:06;;;;;;;5.47;5.07;;;24.50;99.90;;;;;;5008476;28;20188;-65
2021/07/08 10:17:34;;;;;;;6.35;5.72;;;24.50;99.90;;;;;;5011508;28;20169;-65
2021/07/08 10:20:00;;;;;;;5.50;5.20;;;24.30;99.90;;;;;;4995905;28;20694;-65
2021/07/08 10:22:26;;;;;;;5.60;5.10;;;24.00;99.90;;;;;;4995201;28;20204;-65
2021/07/08 10:24:52;;;;;;;6.03;5.53;;;24.20;99.90;;;;;;5009746;28;20254;-65
2021/07/08 10:27:18;;;;;;;5.50;4.53;;;24.60;99.90;;;;;;5015424;28;20176;-65
2021/07/08 10:29:45;;;;;;;5.35;4.30;;;24.90;99.90;;;;;;5003101;28;20184;-65
2021/07/08 10:32:17;;;;;;;6.00;5.60;;;25.30;99.90;;;;;;4995980;28;20205;-65
2021/07/08 10:34:49;;;;;;;6.38;5.95;;;25.90;99.90;;;;;;5006269;28;20203;-65
2021/07/08 10:37:29;;;;;;;5.05;4.70;;;26.20;99.90;;;;;;5015277;28;20239;-65
2021/07/08 10:39:59;;;;;;;5.15;4.75;;;26.60;99.90;;;;;;5002429;28;20216;-65
2021/07/08 10:42:52;;;;;;;5.03;4.63;;;26.60;99.90;;;;;;4995999;28;20287;-65
2021/07/08 10:45:36;;;;;;;5.75;5.25;;;26.50;99.90;;;;;;5003552;28;20287;-65
2021/07/08 10:48:24;;;;;;;5.05;4.65;;;26.40;99.90;;;;;;4995560;28;20169;-65
2021/07/08 10:50:51;;;;;;;4.80;4.40;;;27.00;99.90;;;;;;5014484;28;20175;-65
2021/07/08 10:53:23;;;;;;;5.88;4.70;;;27.50;99.90;;;;;;5015127;28;20265;-65
2021/07/08 10:55:55;;;;;;;7.15;6.72;;;27.80;99.90;;;;;;4996206;28;20204;-65
2021/07/08 10:58:39;;;;;;;5.95;5.38;;;28.00;99.90;;;;;;5008822;28;20180;-65
2021/07/08 11:01:07;;;;;;;8.55;5.47;;;28.00;99.90;;;;;;5015005;28;20533;-65
2021/07/08 11:03:38;;;;;;;5.40;5.00;;;28.20;99.90;;;;;;5000496;28;20197;-65
2021/07/08 11:06:24;;;;;;;5.63;5.13;;;28.60;99.90;;;;;;4995045;28;20295;-65
2021/07/08 11:08:59;;;;;;;5.38;4.93;;;29.00;99.90;;;;;;5011131;28;20207;-65
2021/07/08 11:11:25;;;;;;;6.03;5.30;;;29.20;99.90;;;;;;5014936;28;20168;-65
2021/07/08 11:13:55;;;;;;;4.97;4.68;;;29.30;99.90;;;;;;4998661;28;20200;-64
2021/07/08 11:16:59;;;;;;;5.18;4.78;;;29.70;99.90;;;;;;4995056;28;20200;-65
2021/07/08 11:19:27;;;;;;;5.55;5.15;;;30.10;99.90;;;;;;4996778;28;20541;-65
2021/07/08 11:21:53;;;;;;;6.32;4.75;;;30.50;99.90;;;;;;4994999;28;20173;-65
2021/07/08 11:24:25;;;;;;;5.22;4.72;;;30.50;99.90;;;;;;5013252;28;20242;-65
2021/07/08 11:27:02;;;;;;;5.32;4.82;;;30.20;99.90;;;;;;5014292;28;20168;-65
2021/07/08 11:29:48;;;;;;;5.50;5.03;;;30.20;99.90;;;;;;4995219;28;20516;-65
2021/07/08 11:32:20;;;;;;;7.75;4.90;;;29.90;99.90;;;;;;4994721;28;20294;-65
2021/07/08 11:35:21;;;;;;;5.70;4.40;;;29.60;99.90;;;;;;5014367;28;20180;-65
2021/07/08 11:37:59;;;;;;;5.50;5.05;;;29.00;99.90;;;;;;5008282;28;20184;-65
2021/07/08 11:40:26;;;;;;;5.38;4.90;;;28.90;99.90;;;;;;5014381;28;20180;-65
2021/07/08 11:42:52;;;;;;;5.43;5.03;;;29.00;99.90;;;;;;5009321;28;20699;-65
2021/07/08 11:45:26;;;;;;;4.43;3.97;;;29.10;99.90;;;;;;4994484;28;20197;-65
2021/07/08 11:47:54;;;;;;;5.28;4.88;;;29.10;99.90;;;;;;4998207;28;20512;-65
2021/07/08 11:50:27;;;;;;;6.38;5.85;;;29.00;99.90;;;;;;5012279;28;20165;-65
2021/07/08 11:53:13;;;;;;;5.43;4.82;;;28.60;99.90;;;;;;4997663;28;20197;-65
2021/07/08 11:55:42;;;;;;;6.68;6.07;;;28.20;99.90;;;;;;5013948;28;20180;-65
2021/07/08 11:58:10;;;;;;;4.55;4.25;;;27.70;99.90;;;;;;5008831;28;20200;-65
2021/07/08 12:00:38;;;;;;;4.82;4.43;;;27.30;99.90;;;;;;4994423;28;20275;-65
2021/07/08 12:03:18;;;;;;;5.97;5.47;;;27.40;99.90;;;;;;4997956;28;20207;-65
2021/07/08 12:05:44;;;;;;;5.93;5.25;;;27.70;99.90;;;;;;5013632;28;20286;-65
2021/07/08 12:08:20;;;;;;;5.22;4.82;;;27.80;99.90;;;;;;5009287;28;20647;-65
2021/07/08 12:10:47;;;;;;;5.07;4.72;;;27.80;99.90;;;;;;4994625;28;20172;-65
2021/07/08 12:13:17;;;;;;;5.50;5.10;;;27.90;99.90;;;;;;4997883;28;20203;-65
2021/07/08 12:15:43;;;;;;;4.40;4.20;;;27.40;99.90;;;;;;5013651;28;20184;-65
2021/07/08 12:18:09;;;;;;;5.60;4.57;;;26.90;99.90;;;;;;5010308;28;20191;-64
2021/07/08 12:20:45;;;;;;;5.50;5.10;;;27.00;99.90;;;;;;4994091;28;20572;-65
2021/07/08 12:23:11;;;;;;;5.35;4.88;;;26.80;99.90;;;;;;4993081;28;20207;-65
2021/07/08 12:25:36;;;;;;;5.40;5.00;;;26.90;99.90;;;;;;4993758;28;20227;-64
2021/07/08 12:28:02;;;;;;;6.30;5.93;;;26.60;99.90;;;;;;4994607;28;20176;-64
2021/07/08 12:30:30;;;;;;;6.30;5.00;;;26.40;99.90;;;;;;5013572;28;20586;-65
2021/07/08 12:33:07;;;;;;;6.47;4.88;;;26.40;99.90;;;;;;5013101;28;20223;-64
2021/07/08 12:35:48;;;;;;;5.75;5.35;;;26.40;99.90;;;;;;5012447;28;20183;-64
2021/07/08 12:38:18;;;;;;;6.47;6.07;;;26.50;99.90;;;;;;5010061;28;20187;-65
2021/07/08 12:40:46;;;;;;;5.60;5.28;;;26.50;99.90;;;;;;5013215;28;20172;-65
2021/07/08 12:43:15;;;;;;;5.72;5.40;;;26.40;99.90;;;;;;5012703;28;20219;-65
2021/07/08 12:45:42;;;;;;;5.63;5.22;;;26.20;99.90;;;;;;5007650;28;20215;-64
2021/07/08 12:48:11;;;;;;;5.55;4.88;;;26.10;99.90;;;;;;5000818;28;20177;-64
2021/07/08 12:50:40;;;;;;;5.28;4.90;;;26.20;99.90;;;;;;5011760;28;20239;-64
2021/07/08 12:53:08;;;;;;;6.03;5.72;;;26.20;99.90;;;;;;5012777;28;20196;-65